Terminal Aerodrome Forecast
Issued by NWS Green Bay, WI

Home | Current Version | Previous Version | Text Only | Print | Product List | Glossary On
Versions: 1 2 3 4 5 6 7 8 9 10 11 12 13 14 15 16 17 18 19 20 21 22 23 24 25 26 27 28 29 30 31 32 33
000
FTUS43 KGRB 302300
TAFGRB
TAF
KGRB 302335Z 3100/3124 33006KT P6SM SCT025 BKN050 BKN100
     FM310500 VRB03KT 4SM BR SCT009 SCT040
      TEMPO 3108/3112 3/4SM BR BKN009 OVC040
     FM311300 VRB03KT 5SM BR BKN015
     FM311600 17005KT P6SM SCT025=

USA.gov is the U.S. government's official web portal to all federal, state and local government web resources and services.